Time;durP1;ratioP1;P1;durP2;ratioP2;P2;SDS_P1;SDS_P2;PMS_P1;PMS_P2;Temp;Humidity;BMP_temperature;BMP_pressure;BME280_temperature;BME280_humidity;BME280_pressure;Samples;Min_cycle;Max_cycle;Signal;HPM_P1;HPM_P2
2022/07/25 00:00:54;;;;;;;12.88;11.68;;;;;;;23.56;90.25;94544.22;5073773;28;20224;-63
2022/07/25 00:03:20;;;;;;;12.73;11.57;;;;;;;23.43;91.19;94541.75;5073491;28;20254;-64
2022/07/25 00:05:45;;;;;;;13.20;11.90;;;;;;;23.67;91.13;94543.56;5073594;28;20563;-61
2022/07/25 00:08:11;;;;;;;12.80;11.52;;;;;;;23.78;88.91;94562.81;5073584;28;20630;-64
2022/07/25 00:10:36;;;;;;;12.65;11.13;;;;;;;23.80;88.70;94569.41;5073466;28;20217;-60
2022/07/25 00:13:02;;;;;;;14.63;12.18;;;;;;;23.62;89.77;94543.38;5055256;28;20181;-61
2022/07/25 00:15:27;;;;;;;12.73;11.38;;;;;;;23.91;87.75;94575.69;5073201;28;20216;-63
2022/07/25 00:17:53;;;;;;;13.50;11.80;;;;;;;23.95;88.73;94556.88;5073463;28;20209;-63
2022/07/25 00:20:18;;;;;;;13.20;11.90;;;;;;;23.98;87.49;94568.63;5055161;28;20203;-59
2022/07/25 00:22:43;;;;;;;13.50;12.20;;;;;;;23.76;89.56;94547.44;5073472;28;20196;-63
2022/07/25 00:25:09;;;;;;;12.40;11.30;;;;;;;23.82;90.34;94535.41;5072894;28;20184;-63
2022/07/25 00:27:34;;;;;;;13.23;11.98;;;;;;;24.10;89.75;94548.75;5073117;28;20229;-63
2022/07/25 00:30:00;;;;;;;12.90;11.65;;;;;;;24.19;88.12;94557.88;5072949;28;20199;-61
2022/07/25 00:32:25;;;;;;;13.55;12.18;;;;;;;24.04;88.99;94542.63;5073027;28;20192;-63
2022/07/25 00:34:51;;;;;;;12.82;11.63;;;;;;;24.14;88.98;94542.94;5055021;28;20180;-63
2022/07/25 00:37:16;;;;;;;13.20;11.80;;;;;;;24.27;87.87;94544.59;5072820;28;20224;-62
2022/07/25 00:39:41;;;;;;;13.93;11.57;;;;;;;24.32;87.50;94542.13;5073002;28;20177;-63
2022/07/25 00:42:07;;;;;;;13.68;11.48;;;;;;;24.37;87.52;94541.50;5073260;28;20235;-63
2022/07/25 00:44:33;;;;;;;12.82;11.52;;;;;;;24.45;87.02;94547.19;5071503;28;20200;-60
2022/07/25 00:46:58;;;;;;;12.98;11.75;;;;;;;24.38;87.95;94530.88;5073227;28;20208;-62
2022/07/25 00:49:25;;;;;;;14.10;12.20;;;;;;;24.34;86.75;94547.13;5072895;28;20280;-64
2022/07/25 00:51:52;;;;;;;12.77;11.50;;;;;;;24.33;87.17;94548.94;5054696;28;20663;-64
2022/07/25 00:54:18;;;;;;;14.18;12.77;;;;;;;24.28;86.83;94546.19;5072716;28;20181;-63
2022/07/25 00:56:44;;;;;;;13.68;12.38;;;;;;;24.22;88.50;94534.06;5072659;28;20307;-63
2022/07/25 00:59:10;;;;;;;14.35;12.45;;;;;;;24.20;87.32;94532.69;5072667;28;20212;-62
2022/07/25 01:01:44;;;;;;;13.20;11.82;;;;;;;24.08;88.07;94528.19;5072489;28;20697;-63
2022/07/25 01:04:09;;;;;;;13.30;11.95;;;;;;;24.13;88.06;94535.34;5072497;28;20188;-63
2022/07/25 01:06:35;;;;;;;13.73;12.45;;;;;;;24.05;88.48;94535.63;5073160;28;20627;-59
2022/07/25 01:09:00;;;;;;;13.38;11.90;;;;;;;23.94;89.33;94521.53;5072403;28;20185;-64
2022/07/25 01:11:26;;;;;;;14.00;11.63;;;;;;;24.17;88.21;94539.13;5072209;28;20207;-60
2022/07/25 01:13:51;;;;;;;14.70;13.07;;;;;;;24.16;88.02;94542.69;5072490;28;20195;-61
2022/07/25 01:16:17;;;;;;;14.80;13.32;;;;;;;24.02;89.13;94523.84;5072461;28;20654;-60
2022/07/25 01:18:42;;;;;;;13.13;11.88;;;;;;;24.13;88.56;94540.56;5072355;28;20196;-61
2022/07/25 01:21:08;;;;;;;12.85;11.63;;;;;;;24.06;89.25;94529.41;5054342;28;20209;-63
2022/07/25 01:23:33;;;;;;;12.93;11.73;;;;;;;24.03;88.04;94537.66;5072623;28;20185;-64
2022/07/25 01:25:59;;;;;;;13.93;12.52;;;;;;;23.88;88.41;94518.97;5072391;28;20291;-60
2022/07/25 01:28:24;;;;;;;13.40;11.48;;;;;;;23.79;90.45;94502.09;5072101;28;20195;-64
2022/07/25 01:30:50;;;;;;;13.20;11.77;;;;;;;23.70;90.22;94511.97;5054426;28;20639;-63
2022/07/25 01:33:20;;;;;;;12.70;11.43;;;;;;;23.67;91.35;94496.81;5037629;28;20574;-61
2022/07/25 01:35:47;;;;;;;13.10;11.88;;;;;;;23.72;91.59;94503.94;5071949;28;20312;-62
2022/07/25 01:38:13;;;;;;;12.82;11.50;;;;;;;23.96;89.36;94522.09;5072012;28;20188;-62
2022/07/25 01:40:40;;;;;;;13.88;12.50;;;;;;;24.05;88.20;94538.25;5072004;28;20269;-63
2022/07/25 01:43:06;;;;;;;12.70;11.50;;;;;;;24.04;88.71;94534.84;5071795;28;20184;-62
2022/07/25 01:45:31;;;;;;;12.95;11.65;;;;;;;23.89;89.48;94528.38;5071736;28;20295;-62
2022/07/25 01:47:57;;;;;;;12.50;11.40;;;;;;;23.81;90.34;94524.25;5072041;28;20288;-59
2022/07/25 01:50:23;;;;;;;13.25;11.85;;;;;;;23.84;90.65;94525.59;5071755;28;20216;-64
2022/07/25 01:52:48;;;;;;;15.07;12.18;;;;;;;24.16;89.03;94540.91;5071754;28;20264;-61
2022/07/25 01:55:14;;;;;;;13.10;11.90;;;;;;;24.23;88.29;94547.84;5071201;28;20549;-63
2022/07/25 01:57:40;;;;;;;14.80;11.73;;;;;;;24.17;89.49;94536.50;5053771;28;20185;-63
2022/07/25 02:00:09;;;;;;;11.85;10.68;;;;;;;24.09;90.50;94523.81;5071540;28;20193;-64
2022/07/25 02:02:34;;;;;;;14.60;12.55;;;;;;;24.02;90.56;94523.84;5071617;28;20181;-63
2022/07/25 02:05:00;;;;;;;13.63;12.18;;;;;;;23.98;90.98;94529.66;5071398;28;20188;-64
2022/07/25 02:07:25;;;;;;;13.48;12.13;;;;;;;23.93;91.24;94527.75;5071614;28;20188;-62
2022/07/25 02:09:50;;;;;;;14.55;12.57;;;;;;;23.83;91.44;94524.84;5071341;28;20615;-63
2022/07/25 02:12:16;;;;;;;13.60;12.30;;;;;;;23.72;91.81;94529.91;5071490;28;20217;-62
2022/07/25 02:14:41;;;;;;;13.95;12.63;;;;;;;23.46;93.36;94520.56;5071686;28;20229;-63
2022/07/25 02:17:07;;;;;;;13.65;12.35;;;;;;;23.46;94.35;94524.94;5053380;28;20304;-60
2022/07/25 02:19:33;;;;;;;14.43;13.00;;;;;;;23.44;94.11;94522.56;5071434;28;20209;-62
2022/07/25 02:21:59;;;;;;;14.70;13.30;;;;;;;23.28;94.49;94521.25;5071474;28;20205;-63
2022/07/25 02:24:24;;;;;;;13.98;12.55;;;;;;;23.03;97.68;94520.41;5071339;28;20227;-63
2022/07/25 02:26:56;;;;;;;14.48;13.07;;;;;;;23.00;97.73;94530.41;5071217;28;20270;-61
2022/07/25 02:29:22;;;;;;;13.88;12.43;;;;;;;22.96;97.33;94529.25;5071256;28;20200;-62
2022/07/25 02:31:47;;;;;;;13.95;12.55;;;;;;;23.09;96.46;94523.97;5070980;28;20274;-63
2022/07/25 02:34:13;;;;;;;14.32;12.75;;;;;;;23.04;97.33;94531.59;5071105;28;20667;-63
2022/07/25 02:36:38;;;;;;;15.48;12.65;;;;;;;23.06;97.40;94521.81;5071289;28;20212;-63
2022/07/25 02:39:04;;;;;;;14.52;12.73;;;;;;;23.03;96.78;94527.41;5071056;28;20196;-64
2022/07/25 02:41:30;;;;;;;13.98;12.50;;;;;;;23.15;96.34;94526.53;5071310;28;20216;-63
2022/07/25 02:43:55;;;;;;;15.10;13.25;;;;;;;23.16;95.79;94517.75;5071127;28;20193;-63
2022/07/25 02:46:21;;;;;;;15.25;13.48;;;;;;;23.05;96.21;94515.81;5071199;28;20702;-64
2022/07/25 02:48:46;;;;;;;13.80;12.43;;;;;;;23.10;96.14;94517.78;5070925;28;20724;-62
2022/07/25 02:51:12;;;;;;;13.93;12.45;;;;;;;23.18;95.63;94526.13;5070896;28;20212;-60
2022/07/25 02:53:37;;;;;;;15.45;13.85;;;;;;;23.19;95.60;94519.13;5070943;28;20604;-65
2022/07/25 02:56:03;;;;;;;14.35;12.88;;;;;;;23.25;95.64;94523.47;5070948;28;20303;-63
2022/07/25 02:58:28;;;;;;;14.90;13.43;;;;;;;23.12;96.87;94519.19;5071030;28;20276;-63
2022/07/25 03:00:54;;;;;;;14.20;12.70;;;;;;;23.10;96.62;94521.19;5070993;28;20237;-63
2022/07/25 03:03:19;;;;;;;13.15;11.95;;;;;;;23.14;96.79;94522.34;5052774;28;20633;-62
2022/07/25 03:05:45;;;;;;;13.38;12.07;;;;;;;23.04;96.28;94529.00;5070874;28;20732;-62
2022/07/25 03:08:10;;;;;;;13.48;12.07;;;;;;;23.07;96.44;94519.00;5072870;28;20194;-63
2022/07/25 03:10:35;;;;;;;14.75;13.13;;;;;;;23.03;96.56;94520.41;5074392;28;20232;-62
2022/07/25 03:13:01;;;;;;;13.82;12.38;;;;;;;23.07;96.70;94523.38;5074360;28;20669;-63
2022/07/25 03:15:27;;;;;;;15.10;12.95;;;;;;;23.05;96.76;94517.59;5073999;28;20250;-60
2022/07/25 03:17:52;;;;;;;14.02;12.23;;;;;;;23.02;96.89;94528.41;5074247;28;20185;-63
2022/07/25 03:20:17;;;;;;;13.63;11.85;;;;;;;22.96;97.33;94537.81;5074403;28;20646;-61
2022/07/25 03:22:43;;;;;;;14.35;12.95;;;;;;;23.17;96.24;94526.31;5056395;28;20177;-63
2022/07/25 03:25:09;;;;;;;13.10;11.60;;;;;;;23.31;95.12;94527.84;5081394;22;20240;-63
2022/07/25 03:27:34;;;;;;;15.95;12.60;;;;;;;23.35;95.48;94529.81;5074148;28;20203;-63
2022/07/25 03:30:00;;;;;;;12.68;11.52;;;;;;;23.39;95.23;94532.00;5074437;28;20280;-63
2022/07/25 03:32:25;;;;;;;15.38;11.80;;;;;;;23.30;95.17;94527.03;5073876;28;20662;-63
2022/07/25 03:34:51;;;;;;;13.57;12.20;;;;;;;23.29;95.17;94529.84;5074339;28;20242;-62
2022/07/25 03:37:16;;;;;;;13.80;12.40;;;;;;;23.52;94.04;94540.47;5073268;28;20722;-62
2022/07/25 03:39:42;;;;;;;14.20;11.98;;;;;;;23.32;93.49;94535.44;5073796;28;20670;-63
2022/07/25 03:42:07;;;;;;;14.63;11.52;;;;;;;23.32;94.51;94525.06;5074078;28;20505;-63
2022/07/25 03:44:32;;;;;;;12.77;11.15;;;;;;;23.22;92.89;94545.44;5074104;28;20181;-61
2022/07/25 03:46:58;;;;;;;14.68;11.05;;;;;;;23.22;93.29;94532.47;5073988;28;20236;-62
2022/07/25 03:49:23;;;;;;;13.35;11.18;;;;;;;23.26;92.77;94532.84;5073636;28;20181;-62
2022/07/25 03:51:49;;;;;;;13.05;10.15;;;;;;;23.13;89.29;94583.00;5055512;28;20250;-62
2022/07/25 03:54:14;;;;;;;10.85;9.75;;;;;;;23.03;90.88;94551.53;5073553;28;20674;-63
2022/07/25 03:56:46;;;;;;;10.88;9.88;;;;;;;22.97;88.45;94587.88;5073401;28;20216;-60
2022/07/25 03:59:14;;;;;;;13.75;9.38;;;;;;;22.91;88.14;94583.50;5073789;28;20272;-62
2022/07/25 04:01:40;;;;;;;10.65;9.40;;;;;;;22.96;87.96;94587.09;5073325;28;20718;-59
2022/07/25 04:04:06;;;;;;;11.55;8.90;;;;;;;22.88;87.90;94584.75;5073569;28;20185;-60
2022/07/25 04:06:32;;;;;;;9.57;8.63;;;;;;;22.84;87.01;94588.75;5073354;28;20291;-59
2022/07/25 04:08:58;;;;;;;10.90;8.40;;;;;;;22.86;86.23;94599.72;5073502;28;20318;-60
2022/07/25 04:11:23;;;;;;;11.32;9.43;;;;;;;22.87;87.34;94582.34;5073302;28;20220;-62
2022/07/25 04:13:49;;;;;;;9.02;8.20;;;;;;;22.99;86.40;94599.63;5073535;28;20189;-61
2022/07/25 04:16:16;;;;;;;12.68;9.60;;;;;;;22.95;84.94;94598.47;5055204;28;20697;-61
2022/07/25 04:18:41;;;;;;;9.18;8.25;;;;;;;23.11;86.32;94582.41;5073100;28;20193;-61
2022/07/25 04:21:08;;;;;;;9.98;8.98;;;;;;;23.12;83.22;94627.31;5073253;28;20763;-61
2022/07/25 04:23:33;;;;;;;9.88;8.77;;;;;;;23.17;83.48;94610.13;5073218;28;20185;-64
2022/07/25 04:25:59;;;;;;;11.30;8.32;;;;;;;23.12;82.90;94609.16;5073045;28;20226;-64
2022/07/25 04:28:25;;;;;;;11.23;8.70;;;;;;;22.99;83.01;94610.00;5073270;28;20191;-64
2022/07/25 04:30:51;;;;;;;10.52;8.23;;;;;;;22.95;83.03;94600.25;5073074;28;20270;-62
2022/07/25 04:33:17;;;;;;;12.35;8.48;;;;;;;22.98;83.39;94605.84;5054958;28;20193;-64
2022/07/25 04:35:43;;;;;;;10.38;8.45;;;;;;;23.08;82.80;94611.38;5072808;28;20667;-62
2022/07/25 04:38:09;;;;;;;9.15;8.25;;;;;;;23.12;82.19;94607.38;5072852;28;20188;-64
2022/07/25 04:40:35;;;;;;;8.05;7.20;;;;;;;23.15;80.65;94634.66;5073030;28;20290;-60
2022/07/25 04:43:01;;;;;;;10.05;8.25;;;;;;;23.21;80.04;94639.06;5072276;28;20267;-60
2022/07/25 04:45:26;;;;;;;8.27;7.47;;;;;;;23.15;79.23;94653.63;5072625;28;20201;-60
2022/07/25 04:47:52;;;;;;;11.00;8.95;;;;;;;23.09;80.39;94628.53;5072587;28;20673;-60
2022/07/25 04:50:17;;;;;;;10.32;8.52;;;;;;;23.13;79.17;94642.66;5072531;28;20196;-61
2022/07/25 04:52:43;;;;;;;9.63;8.73;;;;;;;23.28;79.02;94643.19;5072739;28;20177;-61
2022/07/25 04:55:10;;;;;;;11.25;10.07;;;;;;;23.23;78.73;94643.00;5072389;28;20197;-61
2022/07/25 04:57:35;;;;;;;13.50;12.20;;;;;;;23.25;77.86;94653.97;5072550;28;20331;-59
2022/07/25 05:00:05;;;;;;;18.15;16.50;;;;;;;23.37;79.26;94630.81;5072973;28;20665;-59
2022/07/25 05:02:30;;;;;;;12.35;8.85;;;;;;;23.36;77.77;94657.75;5072699;28;20318;-61
2022/07/25 05:04:56;;;;;;;11.10;8.63;;;;;;;23.55;78.49;94648.28;5073052;28;20275;-61
2022/07/25 05:07:21;;;;;;;9.75;8.75;;;;;;;23.57;78.85;94630.69;5072567;28;20269;-61
2022/07/25 05:09:46;;;;;;;12.80;8.63;;;;;;;23.71;76.72;94676.34;5072512;28;20189;-62
2022/07/25 05:12:12;;;;;;;8.85;8.00;;;;;;;23.55;76.04;94684.63;5079755;22;20212;-59
2022/07/25 05:14:37;;;;;;;8.88;7.75;;;;;;;23.54;76.36;94675.22;5072500;28;20295;-60
2022/07/25 05:17:04;;;;;;;10.40;8.15;;;;;;;23.66;75.44;94704.69;5072134;28;20208;-61
2022/07/25 05:19:29;;;;;;;10.02;8.60;;;;;;;23.70;76.56;94669.53;5072199;28;20204;-62
2022/07/25 05:21:54;;;;;;;9.13;8.20;;;;;;;23.79;75.71;94681.28;5072436;28;20209;-61
2022/07/25 05:24:21;;;;;;;11.45;8.55;;;;;;;23.77;74.62;94701.47;5072325;28;20199;-62
2022/07/25 05:26:47;;;;;;;12.38;8.18;;;;;;;23.75;75.24;94685.28;5070703;28;20601;-62
2022/07/25 05:29:13;;;;;;;10.80;7.88;;;;;;;23.71;74.67;94686.72;5072084;28;20709;-60
2022/07/25 05:31:38;;;;;;;11.57;8.38;;;;;;;23.73;74.74;94688.09;5071476;28;20275;-60
2022/07/25 05:34:04;;;;;;;8.68;7.47;;;;;;;23.70;75.29;94682.50;5054164;28;20223;-64
2022/07/25 05:36:30;;;;;;;12.57;8.32;;;;;;;23.74;74.57;94686.28;5071830;28;20217;-62
2022/07/25 05:38:55;;;;;;;7.47;6.78;;;;;;;23.80;73.94;94701.84;5053191;28;20196;-64
2022/07/25 05:41:21;;;;;;;8.00;7.18;;;;;;;23.90;74.15;94694.38;5051635;28;20219;-64
2022/07/25 05:43:47;;;;;;;9.85;7.57;;;;;;;23.95;73.76;94701.53;5071825;28;20272;-63
2022/07/25 05:46:13;;;;;;;9.50;7.72;;;;;;;24.02;72.96;94704.88;5072241;28;20209;-64
2022/07/25 05:48:39;;;;;;;9.70;7.90;;;;;;;24.08;72.74;94699.66;5071875;28;20185;-64
2022/07/25 05:51:05;;;;;;;12.25;8.38;;;;;;;24.16;73.30;94688.22;5071607;28;20212;-64
2022/07/25 05:53:31;;;;;;;12.00;7.75;;;;;;;24.32;72.94;94692.88;5071809;28;20402;-64
2022/07/25 05:55:57;;;;;;;12.85;8.23;;;;;;;24.56;71.37;94720.69;5071677;28;20213;-62
2022/07/25 05:58:23;;;;;;;8.02;7.22;;;;;;;24.60;70.86;94721.84;5053730;28;20195;-62
2022/07/25 06:00:49;;;;;;;8.68;7.78;;;;;;;24.64;70.66;94720.41;5053741;28;20216;-61
2022/07/25 06:03:17;;;;;;;8.55;7.57;;;;;;;24.47;70.17;94731.53;5071580;28;20189;-62
2022/07/25 06:05:44;;;;;;;10.55;7.47;;;;;;;24.54;72.14;94688.91;5071702;28;20290;-60
2022/07/25 06:08:09;;;;;;;10.10;8.10;;;;;;;24.54;70.55;94707.09;5071584;28;20184;-64
2022/07/25 06:10:35;;;;;;;8.25;7.43;;;;;;;24.51;71.10;94712.72;5071290;28;20602;-62
2022/07/25 06:13:00;;;;;;;10.02;7.82;;;;;;;24.51;70.94;94706.72;5071456;28;20185;-62
2022/07/25 06:15:26;;;;;;;8.65;7.75;;;;;;;24.46;71.51;94691.75;5071591;28;20635;-62
2022/07/25 06:17:52;;;;;;;9.02;7.68;;;;;;;24.45;71.16;94695.38;5070232;28;20195;-63
2022/07/25 06:20:17;;;;;;;8.98;7.95;;;;;;;24.51;72.76;94662.53;5071084;28;20193;-63
2022/07/25 06:22:42;;;;;;;9.93;7.80;;;;;;;24.54;70.15;94719.31;5071128;28;20192;-61
2022/07/25 06:25:08;;;;;;;8.55;7.57;;;;;;;24.52;70.77;94692.72;5071280;28;20184;-62
2022/07/25 06:27:35;;;;;;;9.25;8.00;;;;;;;24.73;71.80;94674.13;5071545;28;20185;-60
2022/07/25 06:30:03;;;;;;;12.52;7.47;;;;;;;24.84;71.48;94689.03;5071054;28;20650;-60
2022/07/25 06:32:28;;;;;;;9.88;8.88;;;;;;;24.92;69.90;94715.56;5071087;28;20189;-63
2022/07/25 06:34:54;;;;;;;9.63;8.18;;;;;;;24.94;68.62;94749.97;5071243;28;20181;-61
2022/07/25 06:37:19;;;;;;;9.65;8.70;;;;;;;24.96;69.31;94726.31;5071000;28;20702;-63
2022/07/25 06:39:45;;;;;;;9.95;8.50;;;;;;;25.08;69.82;94713.38;5071154;28;20222;-63
2022/07/25 06:42:10;;;;;;;8.45;7.65;;;;;;;25.13;68.59;94736.97;5070909;28;20221;-64
2022/07/25 06:44:36;;;;;;;9.90;8.70;;;;;;;25.13;69.07;94719.53;5071015;28;20215;-62
2022/07/25 06:47:02;;;;;;;9.50;8.10;;;;;;;25.19;68.86;94725.69;5071033;28;20697;-62
2022/07/25 06:49:28;;;;;;;8.90;7.70;;;;;;;25.29;68.13;94744.19;5071008;28;20181;-60
2022/07/25 06:51:53;;;;;;;8.52;7.50;;;;;;;25.26;67.42;94747.22;5071210;28;20274;-63
2022/07/25 06:54:18;;;;;;;8.48;7.65;;;;;;;25.29;66.53;94752.00;5071112;28;20275;-61
2022/07/25 06:56:44;;;;;;;8.25;7.43;;;;;;;25.19;66.76;94730.88;5071147;28;20221;-61
2022/07/25 06:59:11;;;;;;;10.13;7.97;;;;;;;25.13;66.66;94742.94;5052898;28;20271;-61
2022/07/25 07:01:36;;;;;;;10.75;7.95;;;;;;;25.26;67.22;94729.00;5071075;28;20201;-61
2022/07/25 07:04:02;;;;;;;9.10;7.80;;;;;;;25.16;67.25;94724.31;5070798;28;20650;-64
2022/07/25 07:06:27;;;;;;;11.18;7.95;;;;;;;25.19;66.57;94752.47;5052786;28;20227;-61
2022/07/25 07:08:53;;;;;;;11.50;8.07;;;;;;;25.23;66.37;94742.47;5070797;28;20185;-64
2022/07/25 07:11:18;;;;;;;9.63;7.80;;;;;;;25.29;66.37;94742.34;5070988;28;20612;-61
2022/07/25 07:13:44;;;;;;;8.45;7.38;;;;;;;25.44;66.00;94752.44;5052668;28;20188;-62
2022/07/25 07:16:09;;;;;;;12.48;8.30;;;;;;;25.46;65.34;94768.63;5052700;28;20212;-64
2022/07/25 07:18:35;;;;;;;7.65;7.00;;;;;;;25.46;64.84;94771.25;5070762;28;20189;-63
2022/07/25 07:21:02;;;;;;;8.80;7.82;;;;;;;25.57;63.15;94801.78;5070707;28;20295;-65
2022/07/25 07:23:27;;;;;;;8.50;7.70;;;;;;;25.61;61.85;94818.56;5070615;28;20657;-61
2022/07/25 07:25:53;;;;;;;9.13;8.23;;;;;;;25.84;62.77;94784.03;5070662;28;20291;-64
2022/07/25 07:28:18;;;;;;;10.35;7.78;;;;;;;26.03;62.45;94790.78;5070838;28;20192;-64
2022/07/25 07:30:44;;;;;;;14.38;9.25;;;;;;;26.02;62.32;94791.81;5070351;28;20302;-64
2022/07/25 07:33:09;;;;;;;10.27;7.88;;;;;;;26.00;60.13;94844.13;5070416;28;20181;-62
2022/07/25 07:35:35;;;;;;;12.48;8.57;;;;;;;25.94;58.46;94852.81;5052422;28;20216;-63
2022/07/25 07:38:00;;;;;;;10.73;8.27;;;;;;;25.92;59.70;94809.78;5052583;28;20173;-64
2022/07/25 07:40:26;;;;;;;8.80;7.85;;;;;;;25.95;60.19;94794.47;5070331;28;20235;-65
2022/07/25 07:42:52;;;;;;;9.23;8.32;;;;;;;25.99;58.75;94828.72;5070556;28;20184;-61
2022/07/25 07:45:23;;;;;;;9.40;8.52;;;;;;;26.13;59.29;94802.28;5052328;28;20199;-63
2022/07/25 07:47:50;;;;;;;8.77;7.55;;;;;;;26.18;58.41;94823.25;5070450;28;20181;-64
2022/07/25 07:50:18;;;;;;;8.32;7.63;;;;;;;26.34;58.68;94814.03;5070373;28;20242;-64
2022/07/25 07:52:45;;;;;;;10.57;8.05;;;;;;;26.48;58.88;94812.81;5070372;28;20195;-62
2022/07/25 07:57:58;;;;;;;8.77;7.75;;;;;;;26.40;57.32;94841.84;5074133;28;20216;-62
2022/07/25 08:00:26;;;;;;;8.90;8.10;;;;;;;26.54;56.71;94853.66;5073388;28;20216;-62
2022/07/25 08:02:53;;;;;;;8.85;8.05;;;;;;;26.66;56.99;94838.03;5073475;28;20230;-61
2022/07/25 08:05:24;;;;;;;9.73;8.45;;;;;;;26.92;57.00;94838.44;5073615;28;20218;-64
2022/07/25 08:07:51;;;;;;;11.07;8.13;;;;;;;26.77;55.13;94873.81;5056253;28;20267;-63
2022/07/25 08:10:24;;;;;;;8.95;8.02;;;;;;;26.77;55.56;94860.75;5073616;28;20657;-63
2022/07/25 08:12:50;;;;;;;10.25;7.57;;;;;;;26.87;54.99;94867.03;5073455;28;20177;-63
2022/07/25 08:15:17;;;;;;;8.15;7.40;;;;;;;26.82;54.39;94879.16;5073176;28;20255;-60
2022/07/25 08:17:45;;;;;;;8.90;8.10;;;;;;;26.79;54.93;94863.94;5073160;28;20705;-63
2022/07/25 08:20:11;;;;;;;8.23;7.45;;;;;;;27.13;55.01;94858.75;5073360;28;20701;-64
2022/07/25 08:22:39;;;;;;;9.02;8.18;;;;;;;27.21;55.44;94832.31;5073293;28;20248;-63
2022/07/25 08:25:06;;;;;;;8.43;7.60;;;;;;;27.04;53.80;94881.03;5073155;28;20650;-60
2022/07/25 08:27:31;;;;;;;9.23;7.85;;;;;;;27.00;53.48;94879.06;5073196;28;20604;-61
2022/07/25 08:29:59;;;;;;;11.02;7.78;;;;;;;26.93;54.05;94857.50;5072909;28;20189;-60
2022/07/25 08:32:26;;;;;;;7.57;6.88;;;;;;;27.15;53.72;94863.78;5072987;28;20742;-63
2022/07/25 08:34:52;;;;;;;8.77;7.30;;;;;;;27.28;53.20;94890.47;5072984;28;20185;-64
2022/07/25 08:37:17;;;;;;;9.13;8.15;;;;;;;27.24;52.25;94898.97;5072859;28;20212;-63
2022/07/25 08:39:43;;;;;;;9.75;7.80;;;;;;;27.40;53.31;94856.53;5072997;28;20177;-64
2022/07/25 08:42:09;;;;;;;9.20;7.53;;;;;;;27.68;52.71;94892.38;5071481;28;20224;-64
2022/07/25 08:44:38;;;;;;;13.77;8.27;;;;;;;27.79;53.70;94840.13;5073087;28;20181;-64
2022/07/25 08:47:03;;;;;;;9.55;7.93;;;;;;;27.78;52.00;94896.03;5073241;28;20212;-64
2022/07/25 08:49:29;;;;;;;8.57;7.43;;;;;;;27.74;51.18;94913.19;5072882;28;20216;-63
2022/07/25 08:51:55;;;;;;;12.18;8.20;;;;;;;27.73;51.71;94885.47;5073268;28;20259;-64
2022/07/25 08:54:22;;;;;;;8.45;7.70;;;;;;;27.70;52.46;94866.81;5072932;28;20185;-62
2022/07/25 08:56:48;;;;;;;8.23;6.80;;;;;;;27.71;51.20;94894.56;5072524;28;20220;-64
2022/07/25 08:59:13;;;;;;;8.70;7.90;;;;;;;27.94;51.42;94866.56;5072708;28;20665;-63
2022/07/25 09:01:40;;;;;;;10.60;8.00;;;;;;;28.00;49.96;94925.78;5072621;28;20204;-64
2022/07/25 09:04:07;;;;;;;9.23;7.68;;;;;;;27.92;50.55;94905.19;5071227;28;20217;-63
2022/07/25 09:06:32;;;;;;;10.85;8.18;;;;;;;27.81;50.52;94886.94;5071938;28;20221;-64
2022/07/25 09:08:59;;;;;;;8.15;7.45;;;;;;;27.90;50.58;94896.78;5072468;28;20245;-62
2022/07/25 09:11:33;;;;;;;7.63;6.82;;;;;;;28.22;51.97;94847.50;5072581;28;20221;-64
2022/07/25 09:14:00;;;;;;;10.02;7.30;;;;;;;28.36;50.57;94903.75;5072345;28;20581;-63
2022/07/25 09:16:31;;;;;;;8.57;7.00;;;;;;;28.48;49.69;94911.56;5071156;28;20213;-63
2022/07/25 09:19:18;;;;;;;9.00;7.80;;;;;;;28.65;48.69;94939.38;5072509;28;20540;-64
2022/07/25 09:21:44;;;;;;;9.63;7.38;;;;;;;28.93;47.73;94960.31;5072495;28;20319;-61
2022/07/25 09:24:16;;;;;;;9.35;7.93;;;;;;;29.30;48.69;94923.22;5072240;28;20263;-65
2022/07/25 09:26:53;;;;;;;8.05;7.25;;;;;;;29.23;47.81;94936.47;5072241;28;20234;-63
2022/07/25 09:29:31;;;;;;;9.07;8.18;;;;;;;29.24;48.68;94918.94;5072182;28;20220;-65
2022/07/25 09:31:58;;;;;;;9.00;7.60;;;;;;;28.90;46.56;94965.22;5072644;28;20283;-63
2022/07/25 09:34:37;;;;;;;8.93;8.13;;;;;;;28.72;46.67;94947.91;5072382;28;20650;-62
2022/07/25 09:37:08;;;;;;;7.55;6.65;;;;;;;28.68;46.98;94935.50;5072344;28;20212;-64
2022/07/25 09:39:41;;;;;;;8.18;7.25;;;;;;;28.78;46.81;94938.31;5072051;28;20191;-65
2022/07/25 09:42:16;;;;;;;7.95;6.97;;;;;;;28.87;46.21;94974.34;5071967;28;20217;-65
2022/07/25 09:44:42;;;;;;;10.13;7.07;;;;;;;29.11;46.40;94954.06;5071595;28;20196;-66
2022/07/25 09:47:13;;;;;;;9.35;8.30;;;;;;;29.23;46.48;94933.09;5071586;28;20627;-64
2022/07/25 09:49:43;;;;;;;10.43;7.70;;;;;;;29.15;44.80;95001.59;5071947;28;20255;-63
2022/07/25 09:52:10;;;;;;;8.75;7.47;;;;;;;29.29;45.31;94971.44;5072270;28;20683;-63
2022/07/25 09:54:38;;;;;;;7.95;7.15;;;;;;;29.28;46.12;94936.56;5071932;28;20188;-64
2022/07/25 09:57:04;;;;;;;10.48;7.65;;;;;;;29.40;46.04;94926.81;5053827;28;20252;-61
2022/07/25 09:59:30;;;;;;;11.15;8.32;;;;;;;29.39;46.47;94919.97;5071752;28;20238;-63
2022/07/25 10:02:06;;;;;;;9.93;7.57;;;;;;;29.50;46.81;94913.84;5080407;22;20634;-61
2022/07/25 10:05:06;;;;;;;8.52;7.72;;;;;;;29.46;44.44;94967.78;5050686;28;20201;-63
2022/07/25 10:07:36;;;;;;;7.68;6.97;;;;;;;29.42;45.06;94950.94;5026060;28;20216;-64
2022/07/25 10:10:02;;;;;;;7.63;6.88;;;;;;;29.47;45.12;94937.91;5031562;28;20186;-61
2022/07/25 10:12:27;;;;;;;8.27;7.32;;;;;;;29.26;45.32;94928.16;5032094;28;20190;-61
2022/07/25 10:15:22;;;;;;;8.18;6.38;;;;;;;29.83;44.02;94971.53;5031816;28;20197;-62
2022/07/25 10:17:49;;;;;;;7.50;6.40;;;;;;;30.38;43.54;94992.47;4996894;28;20222;-60
2022/07/25 10:20:14;;;;;;;6.93;6.20;;;;;;;30.50;40.82;94916.22;5031991;28;20201;-64
2022/07/25 10:22:43;;;;;;;7.05;6.43;;;;;;;30.40;40.33;94863.63;5031613;28;20221;-63
2022/07/25 10:25:20;;;;;;;6.50;6.00;;;;;;;30.79;41.11;94836.16;5031593;28;20244;-64
2022/07/25 10:27:49;;;;;;;7.80;7.10;;;;;;;31.33;38.90;94882.31;5030140;28;20276;-61
2022/07/25 10:30:23;;;;;;;7.35;6.50;;;;;;;31.41;37.58;94902.13;5031175;28;20209;-61
2022/07/25 10:32:55;;;;;;;6.97;6.00;;;;;;;31.18;37.52;94874.34;5031156;28;20616;-61
2022/07/25 10:35:20;;;;;;;7.05;6.32;;;;;;;31.64;39.66;94808.91;5031249;28;20213;-63
2022/07/25 10:37:50;;;;;;;6.50;6.00;;;;;;;31.93;39.10;94821.44;5031613;28;20218;-64
2022/07/25 10:42:54;;;;;;;7.75;6.60;;;;;;;30.43;40.17;94768.63;5078476;22;20251;-61
2022/07/25 10:45:20;;;;;;;7.55;6.82;;;;;;;29.97;39.88;94762.16;5071238;28;20239;-61
2022/07/25 10:47:53;;;;;;;7.07;6.38;;;;;;;30.01;40.45;94755.38;5071101;28;20552;-63
2022/07/25 10:50:22;;;;;;;6.65;6.03;;;;;;;30.65;40.96;94733.38;5071227;28;20188;-62
2022/07/25 10:52:58;;;;;;;7.70;6.32;;;;;;;30.86;37.22;94815.78;5071173;28;20263;-64
2022/07/25 10:55:23;;;;;;;6.57;5.82;;;;;;;31.09;37.54;94804.88;5071147;28;20214;-64
2022/07/25 10:58:00;;;;;;;7.45;6.53;;;;;;;31.37;36.53;94812.41;5070842;28;20292;-63
2022/07/25 11:00:26;;;;;;;6.63;6.13;;;;;;;31.50;38.32;94758.63;5070912;28;20277;-63
2022/07/25 11:02:55;;;;;;;7.85;5.82;;;;;;;31.51;38.08;94762.84;5070989;28;20177;-64
2022/07/25 11:05:21;;;;;;;6.43;5.80;;;;;;;31.41;38.46;94753.06;5070864;28;20209;-63
2022/07/25 11:07:53;;;;;;;7.22;6.07;;;;;;;31.32;38.74;94743.28;5070875;28;20211;-61
2022/07/25 11:10:26;;;;;;;5.93;5.45;;;;;;;31.54;36.59;94801.75;5053064;28;20275;-60
2022/07/25 11:12:53;;;;;;;6.63;6.03;;;;;;;31.60;36.03;94802.56;5069398;28;20188;-61
2022/07/25 11:15:22;;;;;;;5.90;5.40;;;;;;;30.65;36.51;94782.47;5070675;28;20193;-60
2022/07/25 11:17:50;;;;;;;7.18;6.47;;;;;;;30.81;36.79;94760.53;5070799;28;20216;-65
2022/07/25 11:20:18;;;;;;;8.43;5.90;;;;;;;30.85;35.69;94798.41;5070694;28;20670;-63
2022/07/25 11:22:51;;;;;;;5.55;5.15;;;;;;;31.63;35.59;94797.63;5052544;28;20242;-63
2022/07/25 11:25:20;;;;;;;8.45;5.15;;;;;;;31.60;34.02;94813.88;5052599;28;20197;-64
2022/07/25 11:27:54;;;;;;;4.93;4.60;;;;;;;32.25;32.93;94808.09;5070497;28;20189;-62
2022/07/25 11:30:19;;;;;;;6.80;5.25;;;;;;;32.66;34.26;94772.09;5074160;28;20236;-62